createdAt,value
2023-01-31T00:04:50.691Z,25.60
2023-01-31T00:09:52.744Z,25.10
2023-01-31T00:14:54.841Z,25.10
2023-01-31T00:19:56.877Z,25.00
2023-01-31T00:24:58.914Z,25.00
2023-01-31T00:30:00.959Z,25.10
2023-01-31T00:35:03.020Z,25.20
2023-01-31T00:40:05.325Z,25.20
2023-01-31T00:45:07.532Z,25.00
2023-01-31T00:50:10.242Z,25.00
2023-01-31T00:55:12.258Z,24.80
2023-01-31T01:00:14.899Z,24.80
2023-01-31T01:05:17.349Z,25.10
2023-01-31T01:10:20.948Z,25.20
2023-01-31T01:15:23.019Z,25.20
2023-01-31T01:20:25.033Z,25.30
2023-01-31T01:25:28.688Z,25.70
2023-01-31T01:30:34.301Z,25.50
2023-01-31T01:35:36.487Z,25.70
2023-01-31T01:40:38.926Z,26.10
2023-01-31T01:45:41.257Z,26.20
2023-01-31T01:50:48.557Z,26.30
2023-01-31T01:55:52.844Z,26.20
2023-01-31T02:00:55.376Z,26.00
2023-01-31T02:06:02.755Z,26.20
2023-01-31T02:11:07.477Z,25.90
2023-01-31T02:16:10.280Z,25.90
2023-01-31T02:21:25.353Z,25.90
2023-01-31T02:26:33.401Z,25.90
2023-01-31T02:31:35.918Z,26.20
2023-01-31T02:36:54.141Z,26.10
2023-01-31T02:41:56.249Z,26.20
2023-01-31T02:47:05.040Z,26.70
2023-01-31T02:52:30.539Z,26.30
2023-01-31T02:57:33.092Z,27.00
2023-01-31T03:02:35.359Z,27.00
2023-01-31T03:12:50.373Z,27.10
2023-01-31T03:18:01.929Z,27.20
2023-01-31T03:23:06.921Z,27.20
2023-01-31T03:28:11.901Z,27.40
2023-01-31T03:33:25.575Z,27.70
2023-01-31T03:38:31.603Z,27.40
2023-01-31T03:43:44.150Z,27.10
2023-01-31T03:48:48.225Z,27.50
2023-01-31T03:53:56.023Z,27.20
2023-01-31T03:59:08.028Z,27.20
2023-01-31T04:04:21.830Z,27.50
2023-01-31T04:09:24.114Z,27.00
2023-01-31T04:14:26.421Z,27.10
2023-01-31T04:19:28.423Z,27.40
2023-01-31T04:24:30.373Z,27.10
2023-01-31T04:29:32.352Z,27.20
2023-01-31T04:34:34.336Z,26.90
2023-01-31T04:39:38.243Z,27.30
2023-01-31T04:44:40.200Z,26.90
2023-01-31T04:49:44.104Z,27.20
2023-01-31T04:54:46.129Z,27.20
2023-01-31T04:59:50.417Z,27.10
2023-01-31T05:04:52.452Z,27.20
2023-01-31T05:09:54.508Z,26.90
2023-01-31T05:14:56.471Z,26.80
2023-01-31T05:19:58.739Z,26.80
2023-01-31T05:25:00.801Z,26.90
2023-01-31T05:30:03.102Z,27.10
2023-01-31T05:35:06.133Z,27.30
2023-01-31T05:40:10.165Z,27.30
2023-01-31T05:45:12.576Z,27.30
2023-01-31T05:50:15.200Z,27.20
2023-01-31T05:55:17.728Z,27.30
2023-01-31T06:00:20.175Z,27.00
2023-01-31T06:05:22.465Z,27.00
2023-01-31T06:10:24.760Z,26.90
2023-01-31T06:15:26.820Z,26.30
2023-01-31T06:20:29.036Z,26.30
2023-01-31T06:25:31.972Z,26.20
2023-01-31T06:30:34.731Z,26.70
2023-01-31T06:35:37.336Z,26.70
2023-01-31T06:40:39.317Z,26.70
2023-01-31T06:45:42.702Z,26.20
2023-01-31T06:50:45.786Z,26.60
2023-01-31T06:55:48.005Z,26.60
2023-01-31T07:00:50.090Z,26.30
2023-01-31T07:05:52.068Z,26.60
2023-01-31T07:10:54.065Z,26.70
2023-01-31T07:15:56.826Z,26.40
2023-01-31T07:20:58.865Z,26.40
2023-01-31T07:26:02.982Z,27.10
2023-01-31T07:31:14.973Z,27.30
2023-01-31T07:36:19.829Z,27.10
2023-01-31T07:41:22.240Z,27.10
2023-01-31T07:46:24.388Z,27.20
2023-01-31T07:51:26.390Z,27.40
2023-01-31T07:56:28.410Z,27.50
2023-01-31T08:01:50.735Z,27.50
2023-01-31T08:06:54.561Z,27.50
2023-01-31T08:11:56.718Z,27.50
2023-01-31T08:16:58.928Z,28.10
2023-01-31T08:22:01.443Z,27.70
2023-01-31T08:27:03.574Z,27.90
2023-01-31T08:32:05.780Z,28.20
2023-01-31T08:37:07.859Z,28.30
2023-01-31T08:42:09.852Z,27.50
2023-01-31T08:47:11.812Z,27.60
2023-01-31T08:52:13.824Z,27.20
2023-01-31T08:57:15.930Z,27.10
2023-01-31T09:02:18.008Z,27.40
2023-01-31T09:07:21.705Z,27.10
2023-01-31T09:12:23.715Z,27.00
2023-01-31T09:17:25.776Z,26.90
2023-01-31T09:27:30.981Z,27.00
2023-01-31T09:32:33.430Z,26.70
2023-01-31T09:37:35.586Z,26.50
2023-01-31T09:42:41.919Z,26.80
2023-01-31T09:47:48.932Z,26.80
2023-01-31T09:52:51.316Z,26.60
2023-01-31T09:58:02.477Z,27.40
2023-01-31T10:03:07.635Z,26.10
2023-01-31T10:08:15.726Z,25.70
2023-01-31T10:13:47.073Z,25.40
2023-01-31T10:18:50.672Z,25.50
2023-01-31T10:24:02.541Z,25.80
2023-01-31T10:29:05.168Z,25.60
2023-01-31T10:34:17.459Z,25.60
2023-01-31T10:39:25.634Z,25.40
2023-01-31T10:44:46.631Z,25.10
2023-01-31T10:49:49.933Z,24.80
2023-01-31T10:55:11.821Z,24.50
2023-01-31T11:00:20.691Z,24.50
2023-01-31T11:05:24.253Z,24.30
2023-01-31T11:10:27.928Z,24.30
2023-01-31T11:15:36.046Z,24.20
2023-01-31T11:20:44.143Z,24.20
2023-01-31T11:25:48.288Z,24.70
2023-01-31T11:30:51.668Z,24.10
2023-01-31T11:35:53.678Z,24.10
2023-01-31T11:40:55.691Z,23.90
2023-01-31T11:45:59.940Z,23.80
2023-01-31T11:51:02.520Z,23.50
2023-01-31T11:56:16.187Z,23.40
2023-01-31T12:01:21.913Z,24.00
2023-01-31T12:06:28.378Z,23.30
2023-01-31T12:11:30.455Z,23.00
2023-01-31T12:16:33.161Z,23.00
2023-01-31T12:21:54.099Z,22.90
2023-01-31T12:27:16.364Z,22.70
2023-01-31T12:32:37.220Z,22.80
2023-01-31T12:37:59.252Z,23.60
2023-01-31T12:43:03.429Z,22.90
2023-01-31T12:48:24.085Z,22.80
2023-01-31T12:53:26.104Z,22.80
2023-01-31T12:58:28.182Z,22.80
2023-01-31T13:08:35.006Z,22.80
2023-01-31T13:13:43.327Z,22.80
2023-01-31T13:18:47.264Z,22.90
2023-01-31T13:23:52.180Z,22.90
2023-01-31T13:29:00.175Z,23.00
2023-01-31T13:34:02.232Z,23.00
2023-01-31T13:39:17.647Z,23.00
2023-01-31T13:44:21.010Z,23.20
2023-01-31T13:49:31.945Z,23.20
2023-01-31T13:54:45.840Z,23.20
2023-01-31T13:59:51.990Z,23.30
2023-01-31T14:05:03.929Z,23.40
2023-01-31T14:10:11.699Z,23.50
2023-01-31T14:15:49.112Z,23.60
2023-01-31T14:20:51.212Z,23.60
2023-01-31T14:25:53.223Z,23.70
2023-01-31T14:30:55.682Z,23.70
2023-01-31T14:36:11.104Z,23.80
2023-01-31T14:41:17.876Z,23.80
2023-01-31T14:46:27.389Z,23.80
2023-01-31T14:51:32.456Z,23.80
2023-01-31T14:56:34.441Z,23.80
2023-01-31T15:01:38.226Z,23.90
2023-01-31T15:06:43.792Z,23.90
2023-01-31T15:11:47.369Z,24.00
2023-01-31T15:16:54.820Z,23.90
2023-01-31T15:21:59.959Z,23.90
2023-01-31T15:27:02.624Z,24.10
2023-01-31T15:32:09.060Z,24.10
2023-01-31T15:37:23.692Z,24.80
2023-01-31T15:42:27.000Z,24.50
2023-01-31T15:47:29.224Z,24.60
2023-01-31T15:52:34.653Z,24.80
2023-01-31T15:57:39.766Z,24.90
2023-01-31T16:02:42.569Z,25.50
2023-01-31T16:07:46.588Z,25.80
2023-01-31T16:12:50.682Z,25.30
2023-01-31T16:17:54.117Z,25.30
2023-01-31T16:22:56.931Z,26.20
2023-01-31T16:28:02.382Z,25.70
2023-01-31T16:33:04.458Z,25.80
2023-01-31T16:38:15.337Z,25.70
2023-01-31T16:43:25.094Z,25.80
2023-01-31T16:48:31.820Z,25.80
2023-01-31T16:53:39.952Z,25.80
2023-01-31T16:58:43.893Z,25.70
2023-01-31T17:03:47.455Z,25.70
2023-01-31T17:08:49.637Z,25.70
2023-01-31T17:13:51.644Z,25.70
2023-01-31T17:18:56.662Z,26.00
2023-01-31T17:23:59.178Z,25.90
2023-01-31T17:29:02.566Z,25.80
2023-01-31T17:34:07.335Z,25.90
2023-01-31T17:39:09.389Z,25.90
2023-01-31T17:44:13.173Z,26.10
2023-01-31T17:49:15.163Z,26.20
2023-01-31T17:54:17.337Z,26.70
2023-01-31T17:59:26.897Z,26.30
2023-01-31T18:04:29.772Z,26.60
2023-01-31T18:09:31.881Z,26.40
2023-01-31T18:14:33.968Z,27.20
2023-01-31T18:19:36.019Z,26.60
2023-01-31T18:24:38.041Z,26.60
2023-01-31T18:29:40.201Z,26.70
2023-01-31T18:34:42.251Z,26.80
2023-01-31T18:39:44.552Z,26.70
2023-01-31T18:44:47.129Z,26.70
2023-01-31T18:49:49.120Z,26.70
2023-01-31T18:54:52.581Z,26.70
2023-01-31T18:59:54.584Z,26.70
2023-01-31T19:04:56.672Z,26.80
2023-01-31T19:09:58.765Z,27.00
2023-01-31T19:15:00.840Z,27.50
2023-01-31T19:20:03.643Z,27.00
2023-01-31T19:25:09.014Z,27.10
2023-01-31T19:30:11.362Z,27.30
2023-01-31T19:35:13.799Z,27.60
2023-01-31T19:40:15.889Z,28.10
2023-01-31T19:45:18.305Z,27.50
2023-01-31T19:50:25.226Z,27.80
2023-01-31T19:55:27.250Z,27.80
2023-01-31T20:00:29.340Z,27.90
2023-01-31T20:05:32.344Z,27.90
2023-01-31T20:10:35.764Z,27.90
2023-01-31T20:15:37.775Z,27.80
2023-01-31T20:20:39.784Z,28.00
2023-01-31T20:25:41.856Z,28.00
2023-01-31T20:30:43.914Z,28.00
2023-01-31T20:35:46.304Z,28.20
2023-01-31T20:40:49.139Z,28.00
2023-01-31T20:45:51.493Z,28.10
2023-01-31T20:50:54.591Z,28.10
2023-01-31T20:56:01.269Z,28.40
2023-01-31T21:01:06.185Z,28.20
2023-01-31T21:06:09.209Z,28.20
2023-01-31T21:11:12.558Z,28.50
2023-01-31T21:16:17.264Z,28.30
2023-01-31T21:21:23.467Z,28.30
2023-01-31T21:26:27.025Z,28.50
2023-01-31T21:31:29.458Z,28.50
2023-01-31T21:36:32.948Z,28.60
2023-01-31T21:41:53.598Z,28.70
2023-01-31T21:46:55.662Z,28.70
2023-01-31T21:51:57.646Z,28.80
2023-01-31T21:56:59.620Z,29.30
2023-01-31T22:02:01.645Z,28.70
2023-01-31T22:07:04.258Z,28.70
2023-01-31T22:12:06.433Z,28.60
2023-01-31T22:17:08.722Z,28.60
2023-01-31T22:22:10.733Z,27.80
2023-01-31T22:27:13.371Z,28.40
2023-01-31T22:32:15.380Z,28.30
2023-01-31T22:37:17.475Z,28.30
2023-01-31T22:42:19.565Z,28.20
2023-01-31T22:47:21.587Z,28.30
2023-01-31T22:52:23.605Z,28.30
2023-01-31T22:57:27.521Z,28.20
2023-01-31T23:02:29.471Z,28.30
2023-01-31T23:07:31.499Z,28.10
2023-01-31T23:12:33.543Z,28.90
2023-01-31T23:17:39.508Z,28.00
2023-01-31T23:22:41.586Z,27.90
2023-01-31T23:27:43.650Z,28.00
2023-01-31T23:32:45.630Z,28.00
2023-01-31T23:37:47.657Z,28.00
2023-01-31T23:42:49.660Z,28.00
2023-01-31T23:47:51.649Z,28.00
2023-01-31T23:52:53.711Z,28.10
2023-01-31T23:57:55.800Z,28.10
